sensor_id;sensor_type;location;lat;lon;timestamp;pressure;altitude;pressure_sealevel;temperature;humidity
75418;BME280;63997;52.112;5.420;2024-03-06T00:01:04;101847.84;;;5.84;100.00
75418;BME280;63997;52.112;5.420;2024-03-06T00:03:31;101838.88;;;5.80;100.00
75418;BME280;63997;52.112;5.420;2024-03-06T00:05:57;101848.34;;;5.76;100.00
75418;BME280;63997;52.112;5.420;2024-03-06T00:08:24;101848.31;;;5.66;100.00
75418;BME280;63997;52.112;5.420;2024-03-06T00:10:50;101849.09;;;5.56;100.00
75418;BME280;63997;52.112;5.420;2024-03-06T00:13:17;101858.31;;;5.53;100.00
75418;BME280;63997;52.112;5.420;2024-03-06T00:15:43;101863.06;;;5.51;100.00
75418;BME280;63997;52.112;5.420;2024-03-06T00:18:10;101863.31;;;5.50;100.00
75418;BME280;63997;52.112;5.420;2024-03-06T00:20:37;101871.00;;;5.51;100.00
75418;BME280;63997;52.112;5.420;2024-03-06T00:23:04;101871.78;;;5.52;100.00
75418;BME280;63997;52.112;5.420;2024-03-06T00:25:30;101865.94;;;5.50;100.00
75418;BME280;63997;52.112;5.420;2024-03-06T00:27:57;101862.50;;;5.44;100.00
75418;BME280;63997;52.112;5.420;2024-03-06T00:30:23;101860.91;;;5.43;100.00
75418;BME280;63997;52.112;5.420;2024-03-06T00:32:51;101870.16;;;5.41;100.00
75418;BME280;63997;52.112;5.420;2024-03-06T00:35:18;101861.97;;;5.37;100.00
75418;BME280;63997;52.112;5.420;2024-03-06T00:37:45;101876.72;;;5.38;100.00
75418;BME280;63997;52.112;5.420;2024-03-06T00:40:12;101878.34;;;5.39;100.00
75418;BME280;63997;52.112;5.420;2024-03-06T00:42:39;101881.78;;;5.40;100.00
75418;BME280;63997;52.112;5.420;2024-03-06T00:45:07;101882.81;;;5.44;100.00
75418;BME280;63997;52.112;5.420;2024-03-06T00:47:34;101875.69;;;5.44;100.00
75418;BME280;63997;52.112;5.420;2024-03-06T00:50:01;101877.81;;;5.42;100.00
75418;BME280;63997;52.112;5.420;2024-03-06T00:52:28;101885.44;;;5.39;100.00
75418;BME280;63997;52.112;5.420;2024-03-06T00:54:54;101875.94;;;5.38;100.00
75418;BME280;63997;52.112;5.420;2024-03-06T00:57:22;101886.50;;;5.38;100.00
75418;BME280;63997;52.112;5.420;2024-03-06T00:59:48;101878.34;;;5.39;100.00
75418;BME280;63997;52.112;5.420;2024-03-06T01:02:15;101888.88;;;5.39;100.00
75418;BME280;63997;52.112;5.420;2024-03-06T01:04:42;101889.91;;;5.38;100.00
75418;BME280;63997;52.112;5.420;2024-03-06T01:07:08;101889.66;;;5.35;100.00
75418;BME280;63997;52.112;5.420;2024-03-06T01:09:35;101891.50;;;5.34;100.00
75418;BME280;63997;52.112;5.420;2024-03-06T01:12:01;101898.63;;;5.34;100.00
75418;BME280;63997;52.112;5.420;2024-03-06T01:14:28;101903.06;;;5.33;100.00
75418;BME280;63997;52.112;5.420;2024-03-06T01:16:54;101897.81;;;5.33;100.00
75418;BME280;63997;52.112;5.420;2024-03-06T01:19:23;101898.59;;;5.28;100.00
75418;BME280;63997;52.112;5.420;2024-03-06T01:21:49;101899.88;;;5.26;100.00
75418;BME280;63997;52.112;5.420;2024-03-06T01:24:16;101906.22;;;5.25;100.00
75418;BME280;63997;52.112;5.420;2024-03-06T01:26:42;101907.53;;;5.22;100.00
75418;BME280;63997;52.112;5.420;2024-03-06T01:29:08;101909.91;;;5.24;100.00
75418;BME280;63997;52.112;5.420;2024-03-06T01:31:35;101909.13;;;5.23;100.00
75418;BME280;63997;52.112;5.420;2024-03-06T01:34:02;101908.34;;;5.23;100.00
75418;BME280;63997;52.112;5.420;2024-03-06T01:36:28;101915.72;;;5.26;100.00
75418;BME280;63997;52.112;5.420;2024-03-06T01:38:55;101917.84;;;5.29;100.00
75418;BME280;63997;52.112;5.420;2024-03-06T01:41:21;101920.50;;;5.29;100.00
75418;BME280;63997;52.112;5.420;2024-03-06T01:43:48;101919.44;;;5.30;100.00
75418;BME280;63997;52.112;5.420;2024-03-06T01:46:14;101916.00;;;5.29;100.00
75418;BME280;63997;52.112;5.420;2024-03-06T01:48:41;101916.50;;;5.26;100.00
75418;BME280;63997;52.112;5.420;2024-03-06T01:51:09;101918.63;;;5.24;100.00
75418;BME280;63997;52.112;5.420;2024-03-06T01:53:36;101917.03;;;5.23;100.00
75418;BME280;63997;52.112;5.420;2024-03-06T01:56:04;101910.94;;;5.18;100.00
75418;BME280;63997;52.112;5.420;2024-03-06T01:58:31;101915.09;;;5.09;100.00
75418;BME280;63997;52.112;5.420;2024-03-06T02:00:58;101913.47;;;5.02;100.00
75418;BME280;63997;52.112;5.420;2024-03-06T02:03:25;101927.19;;;4.99;100.00
75418;BME280;63997;52.112;5.420;2024-03-06T02:05:53;101910.28;;;4.95;100.00
75418;BME280;63997;52.112;5.420;2024-03-06T02:08:20;101925.53;;;4.88;100.00
75418;BME280;63997;52.112;5.420;2024-03-06T02:10:47;101918.91;;;4.86;100.00
75418;BME280;63997;52.112;5.420;2024-03-06T02:13:14;101926.53;;;4.82;100.00
75418;BME280;63997;52.112;5.420;2024-03-06T02:15:41;101931.22;;;4.75;100.00
75418;BME280;63997;52.112;5.420;2024-03-06T02:18:08;101929.34;;;4.70;100.00
75418;BME280;63997;52.112;5.420;2024-03-06T02:20:39;101924.81;;;4.61;100.00
75418;BME280;63997;52.112;5.420;2024-03-06T02:23:06;101931.09;;;4.55;100.00
75418;BME280;63997;52.112;5.420;2024-03-06T02:25:34;101927.88;;;4.53;100.00
75418;BME280;63997;52.112;5.420;2024-03-06T02:28:00;101925.22;;;4.47;100.00
75418;BME280;63997;52.112;5.420;2024-03-06T02:30:27;101927.78;;;4.42;100.00
75418;BME280;63997;52.112;5.420;2024-03-06T02:32:53;101930.63;;;4.36;100.00
75418;BME280;63997;52.112;5.420;2024-03-06T02:35:20;101935.66;;;4.37;100.00
75418;BME280;63997;52.112;5.420;2024-03-06T02:37:47;101929.53;;;4.27;100.00
75418;BME280;63997;52.112;5.420;2024-03-06T02:40:13;101932.00;;;4.11;100.00
75418;BME280;63997;52.112;5.420;2024-03-06T02:42:40;101940.53;;;3.96;100.00
75418;BME280;63997;52.112;5.420;2024-03-06T02:45:07;101950.78;;;3.93;100.00
75418;BME280;63997;52.112;5.420;2024-03-06T02:47:34;101949.91;;;3.87;100.00
75418;BME280;63997;52.112;5.420;2024-03-06T02:50:01;101946.97;;;3.84;100.00
75418;BME280;63997;52.112;5.420;2024-03-06T02:52:27;101940.91;;;3.83;100.00
75418;BME280;63997;52.112;5.420;2024-03-06T02:54:54;101945.13;;;3.84;100.00
75418;BME280;63997;52.112;5.420;2024-03-06T02:57:20;101944.66;;;3.87;100.00
75418;BME280;63997;52.112;5.420;2024-03-06T02:59:47;101948.31;;;3.86;100.00
75418;BME280;63997;52.112;5.420;2024-03-06T03:02:14;101946.72;;;3.85;100.00
75418;BME280;63997;52.112;5.420;2024-03-06T03:04:42;101946.97;;;3.84;100.00
75418;BME280;63997;52.112;5.420;2024-03-06T03:07:09;101951.44;;;3.83;100.00
75418;BME280;63997;52.112;5.420;2024-03-06T03:09:36;101947.75;;;3.84;100.00
75418;BME280;63997;52.112;5.420;2024-03-06T03:12:05;101952.78;;;3.86;100.00
75418;BME280;63997;52.112;5.420;2024-03-06T03:14:32;101957.50;;;3.84;100.00
75418;BME280;63997;52.112;5.420;2024-03-06T03:17:00;101948.75;;;3.78;100.00
75418;BME280;63997;52.112;5.420;2024-03-06T03:19:27;101958.16;;;3.74;100.00
75418;BME280;63997;52.112;5.420;2024-03-06T03:21:53;101951.00;;;3.69;100.00
75418;BME280;63997;52.112;5.420;2024-03-06T03:24:20;101952.78;;;3.64;100.00
75418;BME280;63997;52.112;5.420;2024-03-06T03:26:47;101948.56;;;3.63;100.00
75418;BME280;63997;52.112;5.420;2024-03-06T03:29:14;101948.56;;;3.63;100.00
75418;BME280;63997;52.112;5.420;2024-03-06T03:31:41;101949.59;;;3.62;100.00
75418;BME280;63997;52.112;5.420;2024-03-06T03:34:09;101962.22;;;3.60;100.00
75418;BME280;63997;52.112;5.420;2024-03-06T03:36:43;101957.97;;;3.59;100.00
75418;BME280;63997;52.112;5.420;2024-03-06T03:39:11;101957.69;;;3.55;100.00
75418;BME280;63997;52.112;5.420;2024-03-06T03:41:47;101956.81;;;3.50;100.00
75418;BME280;63997;52.112;5.420;2024-03-06T03:44:15;101960.97;;;3.45;100.00
75418;BME280;63997;52.112;5.420;2024-03-06T03:46:42;101960.34;;;3.38;100.00
75418;BME280;63997;52.112;5.420;2024-03-06T03:49:09;101966.50;;;3.27;100.00
75418;BME280;63997;52.112;5.420;2024-03-06T03:51:37;101970.41;;;3.25;100.00
75418;BME280;63997;52.112;5.420;2024-03-06T03:54:04;101974.56;;;3.21;100.00
75418;BME280;63997;52.112;5.420;2024-03-06T03:56:32;101974.16;;;3.12;100.00
75418;BME280;63997;52.112;5.420;2024-03-06T03:58:58;101975.38;;;3.04;100.00
75418;BME280;63997;52.112;5.420;2024-03-06T04:01:25;101971.88;;;2.99;100.00
75418;BME280;63997;52.112;5.420;2024-03-06T04:03:52;101981.28;;;2.95;100.00
75418;BME280;63997;52.112;5.420;2024-03-06T04:06:18;101975.69;;;2.91;100.00
75418;BME280;63997;52.112;5.420;2024-03-06T04:08:45;101977.31;;;2.92;100.00
75418;BME280;63997;52.112;5.420;2024-03-06T04:11:12;101977.31;;;2.92;100.00
75418;BME280;63997;52.112;5.420;2024-03-06T04:13:38;101977.59;;;2.96;100.00
75418;BME280;63997;52.112;5.420;2024-03-06T04:16:05;101976.00;;;2.95;100.00
75418;BME280;63997;52.112;5.420;2024-03-06T04:18:32;101979.59;;;2.88;100.00
75418;BME280;63997;52.112;5.420;2024-03-06T04:21:05;101976.97;;;2.88;100.00
75418;BME280;63997;52.112;5.420;2024-03-06T04:23:32;101979.53;;;2.83;100.00
75418;BME280;63997;52.112;5.420;2024-03-06T04:26:00;101976.56;;;2.80;100.00
75418;BME280;63997;52.112;5.420;2024-03-06T04:28:26;101978.88;;;2.76;100.00
75418;BME280;63997;52.112;5.420;2024-03-06T04:30:53;101977.44;;;2.69;100.00
75418;BME280;63997;52.112;5.420;2024-03-06T04:33:20;101977.13;;;2.65;100.00
75418;BME280;63997;52.112;5.420;2024-03-06T04:35:46;101980.31;;;2.67;100.00
75418;BME280;63997;52.112;5.420;2024-03-06T04:38:13;101991.16;;;2.71;100.00
75418;BME280;63997;52.112;5.420;2024-03-06T04:40:40;101990.34;;;2.70;100.00
75418;BME280;63997;52.112;5.420;2024-03-06T04:43:06;101993.69;;;2.65;100.00
75418;BME280;63997;52.112;5.420;2024-03-06T04:45:33;102001.81;;;2.64;100.00
75418;BME280;63997;52.112;5.420;2024-03-06T04:48:00;101997.81;;;2.61;100.00
75418;BME280;63997;52.112;5.420;2024-03-06T04:50:27;102004.88;;;2.61;100.00
75418;BME280;63997;52.112;5.420;2024-03-06T04:52:53;102002.50;;;2.59;100.00
75418;BME280;63997;52.112;5.420;2024-03-06T04:55:20;102004.56;;;2.57;100.00
75418;BME280;63997;52.112;5.420;2024-03-06T04:57:49;102002.16;;;2.56;100.00
75418;BME280;63997;52.112;5.420;2024-03-06T05:00:16;102006.97;;;2.59;100.00
75418;BME280;63997;52.112;5.420;2024-03-06T05:02:44;102010.59;;;2.58;100.00
75418;BME280;63997;52.112;5.420;2024-03-06T05:05:28;102011.34;;;2.53;100.00
75418;BME280;63997;52.112;5.420;2024-03-06T05:08:13;102012.59;;;2.51;100.00
75418;BME280;63997;52.112;5.420;2024-03-06T05:11:00;102011.88;;;2.55;100.00
75418;BME280;63997;52.112;5.420;2024-03-06T05:13:44;102023.19;;;2.56;100.00
75418;BME280;63997;52.112;5.420;2024-03-06T05:16:28;102022.63;;;2.54;100.00
75418;BME280;63997;52.112;5.420;2024-03-06T05:19:12;102021.03;;;2.53;100.00
75418;BME280;63997;52.112;5.420;2024-03-06T05:21:55;102031.59;;;2.58;100.00
75418;BME280;63997;52.112;5.420;2024-03-06T05:24:40;102035.38;;;2.62;100.00
75418;BME280;63997;52.112;5.420;2024-03-06T05:27:25;102034.09;;;2.64;100.00
75418;BME280;63997;52.112;5.420;2024-03-06T05:30:09;102045.88;;;2.62;100.00
75418;BME280;63997;52.112;5.420;2024-03-06T05:32:53;102046.44;;;2.64;100.00
75418;BME280;63997;52.112;5.420;2024-03-06T05:35:38;102045.41;;;2.65;100.00
75418;BME280;63997;52.112;5.420;2024-03-06T05:38:22;102050.41;;;2.67;100.00
75418;BME280;63997;52.112;5.420;2024-03-06T05:41:06;102050.41;;;2.67;100.00
75418;BME280;63997;52.112;5.420;2024-03-06T05:43:51;102051.47;;;2.65;100.00
75418;BME280;63997;52.112;5.420;2024-03-06T05:46:34;102055.91;;;2.65;100.00
75418;BME280;63997;52.112;5.420;2024-03-06T05:49:19;102063.22;;;2.63;100.00
75418;BME280;63997;52.112;5.420;2024-03-06T05:52:03;102056.38;;;2.62;100.00
75418;BME280;63997;52.112;5.420;2024-03-06T05:54:47;102063.00;;;2.64;100.00
75418;BME280;63997;52.112;5.420;2024-03-06T05:57:32;102069.59;;;2.67;100.00
75418;BME280;63997;52.112;5.420;2024-03-06T06:00:16;102069.44;;;2.74;100.00
75418;BME280;63997;52.112;5.420;2024-03-06T06:02:44;102078.69;;;2.76;100.00
75418;BME280;63997;52.112;5.420;2024-03-06T06:05:12;102083.97;;;2.76;100.00
75418;BME280;63997;52.112;5.420;2024-03-06T06:07:50;102087.94;;;2.79;100.00
75418;BME280;63997;52.112;5.420;2024-03-06T06:10:17;102091.94;;;2.81;100.00
75418;BME280;63997;52.112;5.420;2024-03-06T06:12:47;102097.19;;;2.81;100.00
75418;BME280;63997;52.112;5.420;2024-03-06T06:15:14;102092.47;;;2.83;100.00
75418;BME280;63997;52.112;5.420;2024-03-06T06:17:42;102095.09;;;2.83;100.00
75418;BME280;63997;52.112;5.420;2024-03-06T06:20:11;102100.91;;;2.85;100.00
75418;BME280;63997;52.112;5.420;2024-03-06T06:22:42;102104.13;;;2.87;100.00
75418;BME280;63997;52.112;5.420;2024-03-06T06:25:08;102108.09;;;2.90;100.00
75418;BME280;63997;52.112;5.420;2024-03-06T06:27:37;102113.69;;;2.94;100.00
75418;BME280;63997;52.112;5.420;2024-03-06T06:30:05;102115.28;;;2.95;100.00
75418;BME280;63997;52.112;5.420;2024-03-06T06:32:33;102116.63;;;2.97;100.00
75418;BME280;63997;52.112;5.420;2024-03-06T06:35:00;102118.34;;;2.91;100.00
75418;BME280;63997;52.112;5.420;2024-03-06T06:37:27;102119.41;;;2.90;100.00
75418;BME280;63997;52.112;5.420;2024-03-06T06:39:53;102120.97;;;2.91;100.00
75418;BME280;63997;52.112;5.420;2024-03-06T06:42:20;102128.41;;;2.95;100.00
75418;BME280;63997;52.112;5.420;2024-03-06T06:44:47;102135.84;;;2.98;100.00
75418;BME280;63997;52.112;5.420;2024-03-06T06:47:13;102140.16;;;3.04;100.00
75418;BME280;63997;52.112;5.420;2024-03-06T06:49:40;102145.50;;;3.09;100.00
75418;BME280;63997;52.112;5.420;2024-03-06T06:52:07;102150.81;;;3.14;100.00
75418;BME280;63997;52.112;5.420;2024-03-06T06:54:34;102144.38;;;3.22;100.00
75418;BME280;63997;52.112;5.420;2024-03-06T06:57:00;102162.53;;;3.23;100.00
75418;BME280;63997;52.112;5.420;2024-03-06T06:59:27;102162.09;;;3.26;100.00
75418;BME280;63997;52.112;5.420;2024-03-06T07:01:54;102166.84;;;3.29;100.00
75418;BME280;63997;52.112;5.420;2024-03-06T07:04:22;102164.06;;;3.36;100.00
75418;BME280;63997;52.112;5.420;2024-03-06T07:06:48;102172.75;;;3.36;100.00
75418;BME280;63997;52.112;5.420;2024-03-06T07:09:15;102177.78;;;3.38;100.00
75418;BME280;63997;52.112;5.420;2024-03-06T07:11:42;102177.09;;;3.42;100.00
75418;BME280;63997;52.112;5.420;2024-03-06T07:14:13;102182.97;;;3.50;100.00
75418;BME280;63997;52.112;5.420;2024-03-06T07:16:44;102185.69;;;3.55;100.00
75418;BME280;63997;52.112;5.420;2024-03-06T07:19:11;102190.47;;;3.58;100.00
75418;BME280;63997;52.112;5.420;2024-03-06T07:21:38;102190.97;;;3.55;100.00
75418;BME280;63997;52.112;5.420;2024-03-06T07:24:05;102196.69;;;3.52;100.00
75418;BME280;63997;52.112;5.420;2024-03-06T07:26:32;102185.69;;;3.55;100.00
75418;BME280;63997;52.112;5.420;2024-03-06T07:29:00;102193.97;;;3.63;100.00
75418;BME280;63997;52.112;5.420;2024-03-06T07:31:27;102192.22;;;3.69;100.00
75418;BME280;63997;52.112;5.420;2024-03-06T07:33:57;102195.53;;;3.76;100.00
75418;BME280;63997;52.112;5.420;2024-03-06T07:36:23;102192.72;;;3.83;100.00
75418;BME280;63997;52.112;5.420;2024-03-06T07:38:50;102198.84;;;3.88;100.00
75418;BME280;63997;52.112;5.420;2024-03-06T07:41:16;102203.16;;;3.94;100.00
75418;BME280;63997;52.112;5.420;2024-03-06T07:43:43;102210.25;;;3.94;100.00
75418;BME280;63997;52.112;5.420;2024-03-06T07:46:10;102213.97;;;3.98;100.00
75418;BME280;63997;52.112;5.420;2024-03-06T07:48:37;102214.84;;;4.04;100.00
75418;BME280;63997;52.112;5.420;2024-03-06T07:51:04;102209.66;;;4.09;100.00
75418;BME280;63997;52.112;5.420;2024-03-06T07:53:31;102213.97;;;4.15;100.00
75418;BME280;63997;52.112;5.420;2024-03-06T07:55:58;102217.09;;;4.12;100.00
75418;BME280;63997;52.112;5.420;2024-03-06T07:58:24;102224.50;;;4.15;100.00
75418;BME280;63997;52.112;5.420;2024-03-06T08:00:52;102221.31;;;4.13;100.00
75418;BME280;63997;52.112;5.420;2024-03-06T08:03:25;102227.72;;;4.17;100.00
75418;BME280;63997;52.112;5.420;2024-03-06T08:05:52;102230.41;;;4.22;100.00
75418;BME280;63997;52.112;5.420;2024-03-06T08:08:21;102232.63;;;4.30;100.00
75418;BME280;63997;52.112;5.420;2024-03-06T08:10:48;102241.72;;;4.39;100.00
75418;BME280;63997;52.112;5.420;2024-03-06T08:13:15;102243.38;;;4.45;100.00
75418;BME280;63997;52.112;5.420;2024-03-06T08:15:42;102233.72;;;4.51;100.00
75418;BME280;63997;52.112;5.420;2024-03-06T08:18:12;102235.13;;;4.59;100.00
75418;BME280;63997;52.112;5.420;2024-03-06T08:20:39;102229.44;;;4.67;100.00
75418;BME280;63997;52.112;5.420;2024-03-06T08:23:07;102239.78;;;4.73;100.00
75418;BME280;63997;52.112;5.420;2024-03-06T08:25:34;102244.34;;;4.78;100.00
75418;BME280;63997;52.112;5.420;2024-03-06T08:28:01;102245.97;;;4.84;100.00
75418;BME280;63997;52.112;5.420;2024-03-06T08:30:29;102251.53;;;4.88;100.00
75418;BME280;63997;52.112;5.420;2024-03-06T08:32:58;102258.97;;;4.91;100.00
75418;BME280;63997;52.112;5.420;2024-03-06T08:35:26;102255.88;;;4.94;100.00
75418;BME280;63997;52.112;5.420;2024-03-06T08:37:53;102267.19;;;4.94;100.00
75418;BME280;63997;52.112;5.420;2024-03-06T08:40:22;102269.94;;;5.04;100.00
75418;BME280;63997;52.112;5.420;2024-03-06T08:42:49;102267.13;;;5.11;100.00
75418;BME280;63997;52.112;5.420;2024-03-06T08:45:17;102278.75;;;5.15;100.00
75418;BME280;63997;52.112;5.420;2024-03-06T08:47:44;102278.28;;;5.18;100.00
75418;BME280;63997;52.112;5.420;2024-03-06T08:50:12;102277.22;;;5.19;100.00
75418;BME280;63997;52.112;5.420;2024-03-06T08:52:39;102279.38;;;5.22;100.00
75418;BME280;63997;52.112;5.420;2024-03-06T08:55:06;102280.78;;;5.30;100.00
75418;BME280;63997;52.112;5.420;2024-03-06T08:57:34;102279.84;;;5.41;100.00
75418;BME280;63997;52.112;5.420;2024-03-06T09:00:01;102287.50;;;5.43;100.00
75418;BME280;63997;52.112;5.420;2024-03-06T09:02:28;102285.16;;;5.46;100.00
75418;BME280;63997;52.112;5.420;2024-03-06T09:04:55;102291.34;;;5.57;100.00
75418;BME280;63997;52.112;5.420;2024-03-06T09:07:22;102294.31;;;5.66;100.00
75418;BME280;63997;52.112;5.420;2024-03-06T09:09:52;102302.50;;;5.64;100.00
75418;BME280;63997;52.112;5.420;2024-03-06T09:12:18;102295.91;;;5.67;100.00
75418;BME280;63997;52.112;5.420;2024-03-06T09:14:45;102307.09;;;5.74;100.00
75418;BME280;63997;52.112;5.420;2024-03-06T09:17:12;102307.19;;;5.84;100.00
75418;BME280;63997;52.112;5.420;2024-03-06T09:19:42;102311.47;;;5.90;100.00
75418;BME280;63997;52.112;5.420;2024-03-06T09:22:28;102311.00;;;5.98;100.00
75418;BME280;63997;52.112;5.420;2024-03-06T09:24:55;102307.38;;;6.04;100.00
75418;BME280;63997;52.112;5.420;2024-03-06T09:27:22;102321.72;;;6.14;100.00
75418;BME280;63997;52.112;5.420;2024-03-06T09:29:49;102321.50;;;6.20;100.00
75418;BME280;63997;52.112;5.420;2024-03-06T09:32:16;102321.97;;;6.17;100.00
75418;BME280;63997;52.112;5.420;2024-03-06T09:34:45;102333.38;;;6.18;100.00
75418;BME280;63997;52.112;5.420;2024-03-06T09:37:12;102333.38;;;6.18;100.00
75418;BME280;63997;52.112;5.420;2024-03-06T09:39:38;102331.03;;;6.26;100.00
75418;BME280;63997;52.112;5.420;2024-03-06T09:42:05;102338.19;;;6.26;100.00
75418;BME280;63997;52.112;5.420;2024-03-06T09:44:32;102335.63;;;6.36;100.00
75418;BME280;63997;52.112;5.420;2024-03-06T09:46:59;102343.81;;;6.34;100.00
75418;BME280;63997;52.112;5.420;2024-03-06T09:49:29;102343.53;;;6.36;100.00
75418;BME280;63997;52.112;5.420;2024-03-06T09:51:58;102347.84;;;6.47;100.00
75418;BME280;63997;52.112;5.420;2024-03-06T09:54:26;102342.34;;;6.54;100.00
75418;BME280;63997;52.112;5.420;2024-03-06T09:56:53;102344.72;;;6.55;100.00
75418;BME280;63997;52.112;5.420;2024-03-06T09:59:22;102344.28;;;6.69;100.00
75418;BME280;63997;52.112;5.420;2024-03-06T10:01:58;102351.72;;;6.77;100.00
75418;BME280;63997;52.112;5.420;2024-03-06T10:04:26;102353.31;;;6.78;100.00
75418;BME280;63997;52.112;5.420;2024-03-06T10:06:55;102356.00;;;6.83;100.00
75418;BME280;63997;52.112;5.420;2024-03-06T10:09:21;102357.16;;;6.97;100.00
75418;BME280;63997;52.112;5.420;2024-03-06T10:11:48;102351.09;;;7.02;100.00
75418;BME280;63997;52.112;5.420;2024-03-06T10:14:15;102352.69;;;7.03;100.00
75418;BME280;63997;52.112;5.420;2024-03-06T10:16:55;102356.72;;;7.21;100.00
75418;BME280;63997;52.112;5.420;2024-03-06T10:19:26;102367.91;;;7.43;100.00
75418;BME280;63997;52.112;5.420;2024-03-06T10:21:57;102363.97;;;7.51;100.00
75418;BME280;63997;52.112;5.420;2024-03-06T10:24:27;102366.84;;;7.39;100.00
75418;BME280;63997;52.112;5.420;2024-03-06T10:26:58;102367.94;;;7.48;100.00
75418;BME280;63997;52.112;5.420;2024-03-06T10:29:27;102370.34;;;7.60;100.00
75418;BME280;63997;52.112;5.420;2024-03-06T10:31:56;102374.88;;;7.69;100.00
75418;BME280;63997;52.112;5.420;2024-03-06T10:34:25;102367.50;;;7.82;100.00
75418;BME280;63997;52.112;5.420;2024-03-06T10:36:59;102361.69;;;8.05;100.00
75418;BME280;63997;52.112;5.420;2024-03-06T10:39:27;102365.94;;;8.21;100.00
75418;BME280;63997;52.112;5.420;2024-03-06T10:41:57;102382.09;;;8.30;100.00
75418;BME280;63997;52.112;5.420;2024-03-06T10:44:26;102374.97;;;8.31;100.00
75418;BME280;63997;52.112;5.420;2024-03-06T10:46:58;102377.84;;;8.24;100.00
75418;BME280;63997;52.112;5.420;2024-03-06T10:49:25;102370.69;;;8.25;100.00
75418;BME280;63997;52.112;5.420;2024-03-06T10:51:52;102381.56;;;8.33;100.00
75418;BME280;63997;52.112;5.420;2024-03-06T10:54:21;102383.47;;;8.43;100.00
75418;BME280;63997;52.112;5.420;2024-03-06T10:56:49;102388.22;;;8.46;100.00
75418;BME280;63997;52.112;5.420;2024-03-06T10:59:18;102385.84;;;8.55;100.00
75418;BME280;63997;52.112;5.420;2024-03-06T11:01:46;102384.47;;;8.78;100.00
75418;BME280;63997;52.112;5.420;2024-03-06T11:04:13;102386.06;;;8.58;100.00
75418;BME280;63997;52.112;5.420;2024-03-06T11:06:41;102392.44;;;8.62;100.00
75418;BME280;63997;52.112;5.420;2024-03-06T11:09:08;102383.69;;;8.77;100.00
75418;BME280;63997;52.112;5.420;2024-03-06T11:11:48;102383.41;;;8.84;100.00
75418;BME280;63997;52.112;5.420;2024-03-06T11:14:15;102383.38;;;8.89;100.00
75418;BME280;63997;52.112;5.420;2024-03-06T11:17:02;102395.84;;;8.98;100.00
75418;BME280;63997;52.112;5.420;2024-03-06T11:20:07;102393.13;;;9.09;100.00
75418;BME280;63997;52.112;5.420;2024-03-06T11:28:18;102391.56;;;9.02;100.00
75418;BME280;63997;52.112;5.420;2024-03-06T11:30:45;102395.06;;;8.98;100.00
75418;BME280;63997;52.112;5.420;2024-03-06T11:33:14;102395.06;;;8.93;100.00
75418;BME280;63997;52.112;5.420;2024-03-06T11:36:23;102403.03;;;8.93;100.00
75418;BME280;63997;52.112;5.420;2024-03-06T11:41:28;102397.19;;;9.61;100.00
75418;BME280;63997;52.112;5.420;2024-03-06T11:43:56;102401.03;;;9.84;100.00
75418;BME280;63997;52.112;5.420;2024-03-06T11:46:43;102404.97;;;9.91;100.00
75418;BME280;63997;52.112;5.420;2024-03-06T11:49:20;102401.41;;;10.11;100.00
75418;BME280;63997;52.112;5.420;2024-03-06T11:51:48;102397.22;;;10.39;100.00
75418;BME280;63997;52.112;5.420;2024-03-06T11:54:16;102403.56;;;10.43;100.00
75418;BME280;63997;52.112;5.420;2024-03-06T11:56:50;102408.50;;;10.21;100.00
75418;BME280;63997;52.112;5.420;2024-03-06T11:59:20;102412.22;;;10.25;100.00
75418;BME280;63997;52.112;5.420;2024-03-06T12:01:47;102408.63;;;10.45;100.00
75418;BME280;63997;52.112;5.420;2024-03-06T12:04:14;102400.19;;;10.67;100.00
75418;BME280;63997;52.112;5.420;2024-03-06T12:06:43;102402.72;;;10.77;100.00
75418;BME280;63997;52.112;5.420;2024-03-06T12:09:09;102403.34;;;10.93;100.00
75418;BME280;63997;52.112;5.420;2024-03-06T12:11:38;102397.59;;;11.09;100.00
75418;BME280;63997;52.112;5.420;2024-03-06T12:14:04;102401.50;;;11.17;100.00
75418;BME280;63997;52.112;5.420;2024-03-06T12:16:31;102404.03;;;11.27;100.00
75418;BME280;63997;52.112;5.420;2024-03-06T12:18:58;102400.31;;;11.47;100.00
75418;BME280;63997;52.112;5.420;2024-03-06T12:21:31;102406.88;;;11.55;100.00
75418;BME280;63997;52.112;5.420;2024-03-06T12:24:03;102404.66;;;11.62;100.00
75418;BME280;63997;52.112;5.420;2024-03-06T12:26:30;102406.75;;;11.65;99.24
75418;BME280;63997;52.112;5.420;2024-03-06T12:29:16;102406.13;;;11.73;97.57
75418;BME280;63997;52.112;5.420;2024-03-06T12:31:43;102396.97;;;11.79;97.09
75418;BME280;63997;52.112;5.420;2024-03-06T12:34:13;102404.34;;;11.87;97.14
75418;BME280;63997;52.112;5.420;2024-03-06T12:36:40;102401.38;;;11.89;95.60
75418;BME280;63997;52.112;5.420;2024-03-06T12:39:07;102397.28;;;11.97;94.79
75418;BME280;63997;52.112;5.420;2024-03-06T12:41:40;102412.16;;;11.79;93.41
75418;BME280;63997;52.112;5.420;2024-03-06T12:44:07;102406.94;;;11.93;94.30
75418;BME280;63997;52.112;5.420;2024-03-06T12:46:33;102399.34;;;12.00;93.34
75418;BME280;63997;52.112;5.420;2024-03-06T12:49:01;102401.66;;;11.87;92.26
75418;BME280;63997;52.112;5.420;2024-03-06T12:51:28;102399.59;;;11.84;91.03
75418;BME280;63997;52.112;5.420;2024-03-06T12:53:54;102400.81;;;11.92;90.71
75418;BME280;63997;52.112;5.420;2024-03-06T12:56:21;102393.44;;;11.84;89.97
75418;BME280;63997;52.112;5.420;2024-03-06T12:58:47;102394.81;;;11.81;90.06
75418;BME280;63997;52.112;5.420;2024-03-06T13:01:14;102396.31;;;12.06;90.17
75418;BME280;63997;52.112;5.420;2024-03-06T13:03:40;102394.38;;;11.93;88.24
75418;BME280;63997;52.112;5.420;2024-03-06T13:06:07;102398.81;;;11.60;88.09
75418;BME280;63997;52.112;5.420;2024-03-06T13:08:33;102392.63;;;11.46;89.13